Time;durP1;ratioP1;P1;durP2;ratioP2;P2;SDS_P1;SDS_P2;PMS_P1;PMS_P2;Temp;Humidity;BMP_temperature;BMP_pressure;BME280_temperature;BME280_humidity;BME280_pressure;Samples;Min_cycle;Max_cycle;Signal;HPM_P1;HPM_P2
2023/09/13 00:02:21;;;;;;;;;18.33;18.00;;;;;21.98;100.00;100850.19;4828426;29;45269;-79
2023/09/13 00:04:47;;;;;;;;;15.67;15.67;;;;;21.98;100.00;100863.75;4828101;29;45445;-80
2023/09/13 00:07:12;;;;;;;;;23.67;23.33;;;;;21.97;100.00;100846.59;4827738;29;47022;-80
2023/09/13 00:09:41;;;;;;;;;21.00;15.00;;;;;21.97;100.00;100845.69;4827774;29;45100;-79
2023/09/13 00:12:07;;;;;;;;;19.00;17.33;;;;;22.05;100.00;100854.47;4827178;29;45352;-79
2023/09/13 00:14:33;;;;;;;;;21.33;18.67;;;;;22.00;100.00;100861.88;4829108;29;44844;-80
2023/09/13 00:16:59;;;;;;;;;23.00;19.33;;;;;22.04;100.00;100860.84;4827384;29;45014;-79
2023/09/13 00:19:27;;;;;;;;;21.33;19.00;;;;;22.02;100.00;100862.72;4827166;29;45493;-80
2023/09/13 00:21:53;;;;;;;;;18.67;18.00;;;;;21.95;100.00;100858.41;4827799;29;45466;-80
2023/09/13 00:24:18;;;;;;;;;16.67;15.67;;;;;21.97;100.00;100859.25;4830254;29;44858;-80
2023/09/13 00:26:43;;;;;;;;;19.00;17.33;;;;;21.94;100.00;100862.94;4813427;29;47732;-81
2023/09/13 00:29:09;;;;;;;;;21.00;19.00;;;;;21.90;100.00;100855.84;4829492;29;44833;-80
2023/09/13 00:31:34;;;;;;;;;19.00;19.00;;;;;21.89;100.00;100858.59;4829246;29;45253;-79
2023/09/13 00:34:00;;;;;;;;;21.33;21.33;;;;;21.89;100.00;100858.59;4829950;29;44675;-80
2023/09/13 00:36:25;;;;;;;;;19.67;19.67;;;;;21.88;100.00;100859.53;4828045;29;47229;-80
2023/09/13 00:38:50;;;;;;;;;18.00;17.00;;;;;21.88;100.00;100862.25;4828838;29;45061;-80
2023/09/13 00:41:16;;;;;;;;;20.33;20.33;;;;;21.78;100.00;100851.69;4828474;29;45397;-80
2023/09/13 00:43:41;;;;;;;;;19.00;19.00;;;;;21.80;100.00;100861.59;4826905;29;44855;-81
2023/09/13 00:46:10;;;;;;;;;19.00;19.00;;;;;21.78;100.00;100864.34;4828622;29;45008;-80
2023/09/13 00:48:35;;;;;;;;;20.33;20.00;;;;;21.73;100.00;100866.28;4831470;29;44916;-81
2023/09/13 00:51:04;;;;;;;;;16.00;16.00;;;;;21.80;100.00;100865.19;4832274;29;44829;-80
2023/09/13 00:53:33;;;;;;;;;22.00;18.00;;;;;21.73;100.00;100861.78;4832110;29;44869;-80
2023/09/13 00:55:58;;;;;;;;;21.67;19.33;;;;;21.66;100.00;100865.59;4830942;29;45232;-80
2023/09/13 00:58:25;;;;;;;;;21.00;17.67;;;;;21.73;100.00;100872.63;4854224;29;44806;-81
2023/09/13 01:00:53;;;;;;;;;22.00;17.67;;;;;21.72;100.00;100872.66;4832232;29;45404;-79
2023/09/13 01:03:20;;;;;;;;;18.33;16.67;;;;;21.72;100.00;100873.53;4829831;29;44945;-79
2023/09/13 01:05:47;;;;;;;;;21.33;21.33;;;;;21.72;100.00;100867.25;4840927;29;45174;-83
2023/09/13 01:08:13;;;;;;;;;23.00;22.00;;;;;21.61;100.00;100862.13;5318233;23;46415;-82
2023/09/13 01:10:38;;;;;;;;;21.00;18.67;;;;;21.69;100.00;100873.66;4874582;29;45143;-82
2023/09/13 01:13:04;;;;;;;;;26.00;24.67;;;;;21.66;100.00;100879.13;4872687;29;44922;-80
2023/09/13 01:15:47;;;;;;;;;27.33;22.33;;;;;21.75;100.00;100878.88;4850740;29;45009;-80
2023/09/13 01:18:25;;;;;;;;;23.00;20.67;;;;;21.71;100.00;100877.19;4833885;29;45441;-80
2023/09/13 01:21:31;;;;;;;;;27.67;27.33;;;;;21.78;100.00;100877.88;4848319;29;44782;-80
2023/09/13 01:24:09;;;;;;;;;28.00;27.00;;;;;21.68;100.00;100869.16;4849813;29;45277;-81
2023/09/13 01:27:11;;;;;;;;;29.00;26.00;;;;;21.73;100.00;100875.34;4832330;29;48078;-84
2023/09/13 01:33:04;;;;;;;;;29.33;26.00;;;;;21.83;100.00;100869.63;4847641;29;45406;-85
2023/09/13 01:35:30;;;;;;;;;23.67;23.67;;;;;21.67;100.00;100870.09;4847732;29;45454;-84
2023/09/13 01:37:55;;;;;;;;;33.00;30.00;;;;;21.52;100.00;100862.44;4847338;29;45523;-85
2023/09/13 01:40:25;;;;;;;;;24.67;24.33;;;;;21.59;100.00;100864.00;4845833;29;45444;-84
2023/09/13 01:42:56;;;;;;;;;26.00;26.00;;;;;21.63;100.00;100867.50;4847276;29;45420;-83
2023/09/13 01:45:23;;;;;;;;;28.33;26.00;;;;;21.60;100.00;100873.91;4830838;29;44905;-84
2023/09/13 01:47:49;;;;;;;;;31.67;29.33;;;;;21.61;100.00;100877.50;4832834;29;47426;-84
2023/09/13 01:50:15;;;;;;;;;26.00;25.67;;;;;21.58;100.00;100882.06;4848272;29;45378;-84
2023/09/13 01:52:41;;;;;;;;;29.67;29.67;;;;;21.56;100.00;100885.75;4832304;29;44787;-84
2023/09/13 01:55:07;;;;;;;;;26.67;26.33;;;;;21.53;100.00;100883.13;4833099;29;45573;-84
2023/09/13 01:57:40;;;;;;;;;28.33;25.67;;;;;21.40;100.00;100876.28;4832122;29;48224;-84
2023/09/13 02:00:06;;;;;;;;;30.67;27.33;;;;;21.40;100.00;100887.97;4847762;29;45498;-85
2023/09/13 02:02:34;;;;;;;;;28.33;27.00;;;;;21.50;100.00;100896.75;4849357;29;45332;-84
2023/09/13 02:05:03;;;;;;;;;28.00;26.67;;;;;21.48;100.00;100904.03;4832046;29;45647;-84
2023/09/13 02:07:28;;;;;;;;;26.33;23.67;;;;;21.40;100.00;100906.03;4847786;29;45888;-84
2023/09/13 02:09:54;;;;;;;;;29.33;25.67;;;;;21.43;100.00;100914.09;4848243;29;45374;-84
2023/09/13 02:12:19;;;;;;;;;31.33;26.67;;;;;21.38;100.00;100901.53;4831888;29;45078;-83
2023/09/13 02:14:45;;;;;;;;;24.33;23.33;;;;;21.43;100.00;100916.78;4831964;29;45400;-83
2023/09/13 02:17:10;;;;;;;;;21.00;20.67;;;;;21.43;100.00;100922.22;4847770;29;45811;-84
2023/09/13 02:19:37;;;;;;;;;22.33;21.00;;;;;21.51;100.00;100917.47;4847321;29;45714;-84
2023/09/13 02:22:02;;;;;;;;;17.67;17.67;;;;;21.41;100.00;100919.53;4831094;29;45405;-85
2023/09/13 02:24:28;;;;;;;;;10.00;10.00;;;;;21.42;100.00;100933.94;4847747;29;45514;-84
2023/09/13 02:26:58;;;;;;;;;28.67;26.33;;;;;21.54;100.00;100928.22;4847582;29;45333;-85
2023/09/13 02:29:24;;;;;;;;;16.67;14.67;;;;;21.43;100.00;100927.63;4830503;29;45347;-85
2023/09/13 02:31:49;;;;;;;;;19.33;18.33;;;;;21.37;100.00;100923.25;4847854;29;45406;-85
2023/09/13 02:34:15;;;;;;;;;25.00;22.67;;;;;21.42;100.00;100928.53;4848411;29;45649;-85
2023/09/13 02:36:40;;;;;;;;;21.67;19.67;;;;;21.47;100.00;100930.22;4847600;29;46190;-84
2023/09/13 02:39:29;;;;;;;;;21.00;19.67;;;;;21.58;100.00;100936.19;4847318;29;45347;-85
2023/09/13 02:41:54;;;;;;;;;19.67;19.67;;;;;21.45;100.00;100923.97;4831232;29;45034;-80
2023/09/13 02:44:20;;;;;;;;;22.00;20.33;;;;;21.43;100.00;100924.91;4848659;29;45477;-80
2023/09/13 02:46:45;;;;;;;;;28.33;25.33;;;;;21.58;100.00;100921.78;4847831;29;47089;-80
2023/09/13 02:49:10;;;;;;;;;22.67;19.67;;;;;21.62;100.00;100926.19;4848159;29;44911;-80
2023/09/13 02:51:36;;;;;;;;;21.00;21.00;;;;;21.35;100.00;100928.69;4831514;29;45515;-80
2023/09/13 02:54:01;;;;;;;;;20.00;19.33;;;;;21.32;100.00;100928.78;4849122;29;45432;-84
2023/09/13 03:12:53;;;;;;;;;21.33;21.00;;;;;21.32;100.00;100934.19;5274178;23;45751;-83
2023/09/13 03:15:19;;;;;;;;;20.67;19.00;;;;;21.19;100.00;100943.56;4827636;29;45487;-85
2023/09/13 03:17:45;;;;;;;;;22.67;22.00;;;;;21.19;100.00;100938.16;4812203;29;47199;-84
2023/09/13 03:20:11;;;;;;;;;22.67;22.33;;;;;21.19;100.00;100927.34;4828086;29;45518;-84
2023/09/13 03:35:33;;;;;;;;;30.67;27.00;;;;;21.21;100.00;100936.31;5352812;23;46519;-81
2023/09/13 03:53:30;;;;;;;;;23.00;20.67;;;;;21.09;100.00;100920.41;5200478;23;45758;-80
2023/09/13 03:55:56;;;;;;;;;21.33;19.33;;;;;21.00;100.00;100916.13;4812412;29;45013;-81
2023/09/13 03:58:23;;;;;;;;;25.00;21.67;;;;;21.05;100.00;100922.31;4828446;29;46406;-79
2023/09/13 04:00:48;;;;;;;;;22.33;20.67;;;;;20.98;100.00;100921.56;4821185;29;44939;-83
2023/09/13 04:03:16;;;;;;;;;21.33;20.00;;;;;21.08;100.00;100919.50;4853705;29;44842;-82
2023/09/13 04:05:41;;;;;;;;;20.00;19.67;;;;;20.99;100.00;100922.47;4853984;29;44826;-82
2023/09/13 04:08:07;;;;;;;;;22.67;20.33;;;;;21.02;100.00;100924.19;4893100;23;46043;-80
2023/09/13 04:10:32;;;;;;;;;26.00;23.33;;;;;20.96;100.00;100931.53;4847861;29;44827;-80
2023/09/13 04:13:00;;;;;;;;;24.67;21.67;;;;;20.97;100.00;100932.44;4847790;29;45225;-80
2023/09/13 04:15:25;;;;;;;;;20.67;20.67;;;;;20.96;100.00;100938.75;4847196;29;45331;-80
2023/09/13 04:17:51;;;;;;;;;20.00;19.67;;;;;20.99;100.00;100925.16;4845913;29;47461;-80
2023/09/13 04:20:17;;;;;;;;;23.67;21.33;;;;;21.07;100.00;100935.78;4847371;29;45453;-80
2023/09/13 04:22:42;;;;;;;;;22.00;19.67;;;;;21.10;100.00;100933.00;4829235;29;44974;-80
2023/09/13 04:35:28;;;;;;;;;24.33;23.00;;;;;21.25;100.00;100926.28;5069305;23;46564;-84
2023/09/13 04:37:54;;;;;;;;;20.67;20.33;;;;;21.25;100.00;100926.28;4846845;29;46065;-80
2023/09/13 04:40:19;;;;;;;;;21.33;20.67;;;;;21.30;100.00;100927.94;4831349;29;45493;-79
2023/09/13 04:43:15;;;;;;;;;20.33;18.00;;;;;21.45;100.00;100929.38;4846236;29;44804;-81
2023/09/13 04:45:40;;;;;;;;;21.67;19.33;;;;;21.24;100.00;100919.09;4853146;29;44860;-81
2023/09/13 05:34:52;;;;;;;;;25.33;23.67;;;;;21.56;100.00;100991.31;5495173;23;46631;-86
2023/09/13 05:37:18;;;;;;;;;18.33;15.00;;;;;21.35;100.00;100988.22;4833513;29;45340;-84
2023/09/13 05:39:46;;;;;;;;;18.00;18.00;;;;;21.37;100.00;100996.31;4832530;29;47065;-85
2023/09/13 05:42:11;;;;;;;;;25.67;23.00;;;;;21.35;100.00;100993.63;4848145;29;45441;-83
2023/09/13 05:44:36;;;;;;;;;22.33;21.00;;;;;21.37;100.00;101004.44;4831365;29;44792;-79
2023/09/13 05:47:02;;;;;;;;;21.00;20.00;;;;;21.35;100.00;101007.16;4850626;29;45238;-80
2023/09/13 05:49:29;;;;;;;;;25.00;22.67;;;;;21.29;100.00;101009.13;4833806;29;47159;-80
2023/09/13 05:51:54;;;;;;;;;22.67;21.67;;;;;21.25;100.00;101011.03;4833774;29;45155;-81
2023/09/13 05:54:20;;;;;;;;;21.33;20.00;;;;;21.23;100.00;101006.56;4850225;29;45214;-80
2023/09/13 05:56:45;;;;;;;;;20.33;18.00;;;;;21.20;100.00;101014.78;4835019;29;44952;-80
2023/09/13 05:59:11;;;;;;;;;19.00;18.67;;;;;21.22;100.00;101011.09;4832858;29;47130;-81
2023/09/13 06:01:39;;;;;;;;;22.67;22.00;;;;;21.20;100.00;101010.25;4849722;29;44763;-80
2023/09/13 06:04:10;;;;;;;;;22.67;21.00;;;;;21.26;100.00;101017.31;4849168;29;45714;-81
2023/09/13 06:06:36;;;;;;;;;22.00;19.33;;;;;21.25;100.00;101019.16;4835029;29;44800;-84
2023/09/13 06:09:04;;;;;;;;;21.00;19.33;;;;;21.27;100.00;101009.19;4832801;29;47184;-85
2023/09/13 06:11:31;;;;;;;;;24.67;21.33;;;;;21.33;100.00;101019.84;4833026;29;45441;-85
2023/09/13 06:13:56;;;;;;;;;20.33;19.33;;;;;21.37;100.00;101018.84;4831415;29;45661;-84
2023/09/13 06:16:23;;;;;;;;;21.00;20.33;;;;;21.43;100.00;101022.31;4849615;29;45357;-85
2023/09/13 06:18:49;;;;;;;;;20.67;19.67;;;;;21.41;100.00;101016.94;4849259;29;45365;-83
2023/09/13 06:21:14;;;;;;;;;14.33;13.67;;;;;21.50;100.00;101024.81;4832243;29;45435;-85
2023/09/13 06:23:43;;;;;;;;;22.00;18.67;;;;;21.65;100.00;101026.22;4849163;29;44748;-85
2023/09/13 06:26:09;;;;;;;;;20.00;19.00;;;;;21.53;100.00;101019.34;4832317;29;44917;-84
2023/09/13 06:28:34;;;;;;;;;18.33;18.33;;;;;21.61;100.00;101031.75;4847672;29;46311;-86
2023/09/13 06:31:00;;;;;;;;;22.33;21.67;;;;;21.61;100.00;101031.75;4849211;29;45450;-86
2023/09/13 06:33:26;;;;;;;;;22.67;19.67;;;;;21.63;100.00;101036.19;4851846;29;45376;-84
2023/09/13 06:35:53;;;;;;;;;25.00;20.33;;;;;21.62;100.00;101033.56;4853463;29;44862;-83
2023/09/13 06:41:43;;;;;;;;;23.00;22.67;;;;;21.53;100.00;101041.00;4851803;29;44813;-81
2023/09/13 06:44:09;;;;;;;;;25.33;23.33;;;;;21.64;100.00;101051.53;4833587;29;45375;-82
2023/09/13 06:46:38;;;;;;;;;22.67;21.00;;;;;21.83;100.00;101051.91;4832684;29;44907;-85
2023/09/13 06:49:04;;;;;;;;;22.33;21.33;;;;;21.72;100.00;101052.22;4831154;29;47103;-84
2023/09/13 06:51:30;;;;;;;;;25.00;22.00;;;;;21.64;100.00;101031.69;4831291;29;45393;-84
2023/09/13 06:53:56;;;;;;;;;21.67;17.67;;;;;21.78;100.00;101046.63;4830656;29;45530;-84
2023/09/13 06:56:21;;;;;;;;;22.33;21.00;;;;;21.78;100.00;101046.63;4847736;29;45514;-83
2023/09/13 06:58:47;;;;;;;;;21.00;19.00;;;;;21.85;100.00;101051.88;4837285;29;47363;-84
2023/09/13 07:01:13;;;;;;;;;20.00;18.67;;;;;21.90;100.00;101052.63;4831151;29;45490;-83
2023/09/13 07:03:44;;;;;;;;;21.67;18.00;;;;;21.95;100.00;101056.09;4831495;29;45453;-84
2023/09/13 07:06:13;;;;;;;;;20.67;18.33;;;;;22.11;100.00;101049.31;4834681;29;45486;-84
2023/09/13 07:08:38;;;;;;;;;22.00;19.00;;;;;22.08;100.00;101052.13;4852776;29;46023;-83
2023/09/13 07:11:06;;;;;;;;;21.33;16.67;;;;;22.15;100.00;101051.00;4850663;29;45167;-82
2023/09/13 07:13:32;;;;;;;;;16.00;16.00;;;;;22.14;100.00;101046.53;4835816;29;45568;-83
2023/09/13 07:16:48;;;;;;;;;19.33;13.00;;;;;22.39;100.00;101048.53;4839400;29;45468;-84
2023/09/13 07:19:13;;;;;;;;;15.67;15.67;;;;;22.24;100.00;101048.97;4852371;29;45623;-83
2023/09/13 07:21:46;;;;;;;;;16.33;13.33;;;;;22.57;100.00;101047.97;4862226;29;44857;-84
2023/09/13 07:24:17;;;;;;;;;15.33;13.33;;;;;22.65;100.00;101055.88;4858085;29;44801;-84
2023/09/13 07:30:23;;;;;;;;;12.33;12.33;;;;;22.89;100.00;101067.78;5026536;23;47479;-83
2023/09/13 07:33:19;;;;;;;;;22.33;17.33;;;;;22.89;100.00;101062.34;4809351;29;45400;-84
2023/09/13 07:36:06;;;;;;;;;13.67;13.33;;;;;22.77;100.00;101065.44;4828255;29;45479;-85
2023/09/13 07:39:10;;;;;;;;;;;;;;;;;;;;;
2023/09/13 07:45:34;;;;;;;;;15.00;13.00;;;;;22.60;100.00;101081.34;5016187;23;47023;-83
2023/09/13 07:48:14;;;;;;;;;14.00;13.67;;;;;22.43;100.00;101076.44;4812599;29;45404;-83
2023/09/13 07:50:56;;;;;;;;;13.00;12.33;;;;;22.25;100.00;101056.19;4820037;29;44956;-86
2023/09/13 07:53:28;;;;;;;;;13.00;13.00;;;;;22.25;100.00;101067.91;4820994;29;47306;-84
2023/09/13 08:02:52;;;;;;;;;13.00;13.00;;;;;22.76;100.00;101069.06;4839927;29;45020;-86
2023/09/13 08:05:31;;;;;;;;;15.00;13.00;;;;;22.71;100.00;101071.06;4819420;29;46703;-82
2023/09/13 08:11:47;;;;;;;;;10.00;10.00;;;;;23.21;100.00;101105.66;4831920;29;44947;-86
2023/09/13 08:14:23;;;;;;;;;16.00;14.33;;;;;23.31;100.00;101072.75;4822367;29;45290;-83
2023/09/13 08:20:25;;;;;;;;;14.33;12.33;;;;;23.67;100.00;101090.53;4795152;29;45610;-84
2023/09/13 08:23:49;;;;;;;;;12.00;11.33;;;;;23.65;100.00;101097.84;4791595;29;45030;-85
2023/09/13 08:30:53;;;;;;;;;11.00;10.67;;;;;23.32;100.00;101095.34;4701668;30;45308;-84
2023/09/13 08:33:27;;;;;;;;;10.00;10.00;;;;;23.20;100.00;101107.50;4705771;29;44858;-83
2023/09/13 08:36:07;;;;;;;;;10.67;10.67;;;;;23.15;100.00;101094.09;4706328;29;44979;-85
2023/09/13 08:39:06;;;;;;;;;12.33;12.33;;;;;23.45;100.00;101139.25;4707742;29;45613;-83
2023/09/13 08:44:25;;;;;;;;;12.00;11.00;;;;;23.33;100.00;101163.16;4897130;23;45731;-83
2023/09/13 08:47:12;;;;;;;;;12.00;12.00;;;;;23.24;100.00;101143.56;4859897;29;45526;-83
2023/09/13 08:50:13;;;;;;;;;12.00;11.00;;;;;23.15;100.00;101151.06;4853067;29;45049;-83
2023/09/13 08:52:50;;;;;;;;;12.00;11.00;;;;;23.31;100.00;101156.91;4844179;29;45427;-84
2023/09/13 08:55:48;;;;;;;;;;;;;;;;;;;;;
2023/09/13 08:58:28;;;;;;;;;11.33;10.33;;;;;23.58;100.00;101150.63;4841270;29;68027;-84
2023/09/13 09:00:57;;;;;;;;;14.00;14.00;;;;;23.76;100.00;101177.16;4853527;29;45384;-84
2023/09/13 09:03:39;;;;;;;;;9.00;8.00;;;;;23.93;100.00;101158.44;4853298;29;47243;-83
2023/09/13 09:06:17;;;;;;;;;13.00;11.67;;;;;24.23;100.00;101166.47;4853555;29;45186;-83
2023/09/13 09:55:28;;;;;;;;;8.50;8.50;;;;;25.07;100.00;101186.91;5242748;23;45177;-81
2023/09/13 11:22:08;;;;;;;;;9.00;9.00;;;;;27.08;100.00;101198.31;3228724;27;45521;-77
2023/09/13 11:24:35;;;;;;;;;9.33;7.67;;;;;26.89;100.00;101201.91;4839970;29;44978;-77
2023/09/13 11:27:17;;;;;;;;;5.75;4.00;;;;;26.91;100.00;101201.84;4831040;29;44794;-77
2023/09/13 11:29:55;;;;;;;;;8.00;8.00;;;;;26.63;100.00;101170.38;4844031;29;44972;-77
2023/09/13 11:32:29;;;;;;;;;9.00;8.00;;;;;26.73;100.00;101192.69;4846019;29;47481;-78
2023/09/13 11:34:57;;;;;;;;;8.25;8.25;;;;;26.67;100.00;101203.88;4831778;29;45747;-80
2023/09/13 11:37:32;;;;;;;;;10.33;10.00;;;;;26.66;100.00;101177.53;4812760;29;44777;-78
2023/09/13 11:42:59;;;;;;;;;7.50;7.50;;;;;26.70;100.00;101180.06;5221301;23;46469;-79
2023/09/13 11:45:35;;;;;;;;;5.50;5.50;;;;;26.80;100.00;101175.03;4850520;29;45018;-81
2023/09/13 11:48:24;;;;;;;;;5.50;5.50;;;;;26.99;100.00;101196.03;4868821;29;44837;-80
2023/09/13 11:50:51;;;;;;;;;8.75;8.75;;;;;27.11;100.00;101220.03;4858454;29;44850;-78
2023/09/13 11:53:27;;;;;;;;;8.00;8.00;;;;;27.30;100.00;101218.19;4841512;29;47246;-79
2023/09/13 11:55:57;;;;;;;;;6.25;6.25;;;;;27.22;100.00;101198.53;4849335;29;44838;-79
2023/09/13 11:58:33;;;;;;;;;4.75;4.75;;;;;27.38;100.00;101204.16;4846790;29;45106;-78
2023/09/13 12:01:08;;;;;;;;;6.00;6.00;;;;;27.22;100.00;101184.00;4864411;29;44908;-86
2023/09/13 12:07:09;;;;;;;;;5.25;5.25;;;;;27.44;100.00;101206.59;4845949;29;45339;-82
2023/09/13 12:09:47;;;;;;;;;5.67;5.67;;;;;27.50;100.00;101191.75;4839727;29;44922;-84
2023/09/13 12:12:26;;;;;;;;;4.33;4.33;;;;;27.59;100.00;101213.16;4854355;29;44820;-83
2023/09/13 12:15:41;;;;;;;;;5.67;5.67;;;;;27.88;100.00;101222.66;4854793;29;45577;-84
2023/09/13 12:19:06;;;;;;;;;;;;;;;;;;;;;
2023/09/13 12:21:53;;;;;;;;;6.33;6.33;;;;;27.85;100.00;101191.81;4762001;29;68831;-82
2023/09/13 12:24:24;;;;;;;;;6.00;6.00;;;;;27.90;100.00;101189.78;4768477;29;44793;-84
2023/09/13 12:27:07;;;;;;;;;8.00;8.00;;;;;28.07;100.00;101195.25;4756696;29;45492;-84
2023/09/13 12:30:04;;;;;;;;;5.67;5.67;;;;;28.25;100.00;101222.59;4776795;29;45043;-84
2023/09/13 12:32:33;;;;;;;;;5.50;5.50;;;;;28.22;100.00;101212.72;4764982;29;45055;-85
2023/09/13 12:38:36;;;;;;;;;7.25;7.25;;;;;28.40;100.00;101219.06;4760154;29;45661;-82
2023/09/13 12:41:36;;;;;;;;;6.75;6.00;;;;;28.37;100.00;101193.72;4778182;29;44833;-85
2023/09/13 12:44:18;;;;;;;;;4.00;4.00;;;;;28.30;100.00;101193.19;4672065;29;44848;-84
2023/09/13 12:46:51;;;;;;;;;4.25;4.25;;;;;28.21;100.00;101200.00;4746528;29;45585;-84
2023/09/13 12:49:46;;;;;;;;;3.25;3.25;;;;;27.74;100.00;101171.38;4746118;29;45108;-83
2023/09/13 12:52:22;;;;;;;;;4.75;3.50;;;;;27.77;100.00;101207.72;4761324;29;44845;-81
2023/09/13 12:54:50;;;;;;;;;8.50;5.50;;;;;27.46;100.00;101184.69;4762438;29;44914;-81
2023/09/13 12:57:15;;;;;;;;;6.00;5.75;;;;;27.43;100.00;101185.72;4746967;29;45379;-81
2023/09/13 12:59:56;;;;;;;;;7.00;4.25;;;;;27.66;100.00;101194.63;4765511;29;45758;-81
2023/09/13 13:02:21;;;;;;;;;4.00;4.00;;;;;27.51;100.00;101179.84;4746207;29;45449;-80
2023/09/13 13:04:53;;;;;;;;;4.00;4.00;;;;;27.65;100.00;101187.38;4746094;29;44840;-80
2023/09/13 13:07:27;;;;;;;;;5.00;5.00;;;;;27.70;100.00;101198.97;4750648;29;45489;-81
2023/09/13 13:10:05;;;;;;;;;5.25;5.00;;;;;27.85;100.00;101202.75;4745231;29;47042;-82
2023/09/13 13:12:42;;;;;;;;;4.25;4.25;;;;;27.82;100.00;101192.88;4762079;29;44823;-81
2023/09/13 13:15:08;;;;;;;;;5.25;5.25;;;;;27.88;100.00;101202.66;4747896;29;44852;-82
2023/09/13 13:21:45;;;;;;;;;5.00;4.00;;;;;28.41;100.00;101206.28;4797822;29;44882;-82
2023/09/13 13:24:11;;;;;;;;;2.75;2.75;;;;;28.39;100.00;101180.84;4836464;29;45445;-82
2023/09/13 13:26:40;;;;;;;;;4.25;4.00;;;;;28.54;98.44;101199.19;4836512;29;44854;-82
2023/09/13 13:29:09;;;;;;;;;3.25;1.50;;;;;28.38;98.94;101188.19;4819607;29;45388;-81
2023/09/13 13:31:38;;;;;;;;;3.75;3.75;;;;;28.30;97.77;101204.13;4816329;29;46904;-81
2023/09/13 13:44:17;;;;;;;;;5.75;5.00;;;;;27.71;96.30;101182.50;4850475;29;45502;-81
2023/09/13 13:47:09;;;;;;;;;6.75;6.75;;;;;27.82;96.06;101197.47;4840210;29;44784;-80
2023/09/13 13:49:54;;;;;;;;;4.00;3.75;;;;;27.85;96.77;101159.03;4858862;29;44930;-79
2023/09/13 13:52:27;;;;;;;;;4.67;4.67;;;;;28.17;93.69;101192.03;4857218;29;44899;-80
2023/09/13 13:54:53;;;;;;;;;4.25;4.25;;;;;28.05;89.58;101172.56;4854208;29;45287;-81
2023/09/13 13:57:22;;;;;;;;;4.25;4.25;;;;;28.01;89.78;101157.28;4854099;29;44774;-82
2023/09/13 13:59:47;;;;;;;;;7.00;6.50;;;;;27.83;79.38;101155.47;4821826;29;45525;-81
2023/09/13 14:02:17;;;;;;;;;5.50;5.50;;;;;27.88;89.88;101192.59;4853821;29;45455;-83
2023/09/13 14:08:15;;;;;;;;;4.75;4.75;;;;;27.78;87.62;101150.25;4857424;29;44801;-81
2023/09/13 14:10:46;;;;;;;;;4.25;4.25;;;;;27.90;75.75;101154.25;4862676;29;44822;-82
2023/09/13 14:13:25;;;;;;;;;6.50;5.00;;;;;27.94;77.27;101166.78;4858026;29;44799;-85
2023/09/13 14:16:08;;;;;;;;;6.00;6.00;;;;;27.81;83.84;101132.81;4847765;29;45345;-85
2023/09/13 14:22:00;;;;;;;;;3.00;1.75;;;;;28.27;84.16;101188.72;4862220;29;45465;-82
2023/09/13 14:24:43;;;;;;;;;5.75;5.75;;;;;28.19;85.20;101146.34;4845079;29;45251;-81
2023/09/13 14:27:21;;;;;;;;;6.00;5.00;;;;;28.36;83.31;101167.31;4858150;29;45489;-82
2023/09/13 14:29:46;;;;;;;;;5.00;5.00;;;;;28.09;83.02;101152.28;4857898;29;44696;-82
2023/09/13 14:32:19;;;;;;;;;5.00;5.00;;;;;28.01;82.52;101138.16;4856062;29;44873;-80
2023/09/13 14:34:52;;;;;;;;;5.00;5.00;;;;;28.38;78.01;101181.81;4854513;29;45550;-80
2023/09/13 14:37:23;;;;;;;;;6.33;6.00;;;;;28.19;80.49;101135.41;4849960;29;46756;-80
2023/09/13 14:39:52;;;;;;;;;4.00;4.00;;;;;28.57;76.03;101179.00;4842914;29;45406;-81
2023/09/13 14:42:25;;;;;;;;;4.50;4.50;;;;;28.36;80.23;101175.53;4821552;29;45530;-80
2023/09/13 14:45:56;;;;;;;;;4.00;4.00;;;;;28.61;76.29;101177.88;4838666;29;45384;-81
2023/09/13 14:48:52;;;;;;;;;2.75;2.75;;;;;28.59;77.05;101171.59;4843424;29;45106;-82
2023/09/13 14:51:54;;;;;;;;;1.75;1.75;;;;;28.60;75.89;101167.88;4829217;29;45419;-82
2023/09/13 14:55:15;;;;;;;;;2.00;2.00;;;;;28.56;76.52;101164.44;4839286;29;45386;-81
2023/09/13 15:08:33;;;;;;;;;;;;;;;;;;;;;
2023/09/13 15:11:29;;;;;;;;;;;;;;;;;;;;;
2023/09/13 15:14:04;;;;;;;;;2.25;2.25;;;;;28.66;72.21;101157.50;4814632;29;74612;-80
2023/09/13 15:16:33;;;;;;;;;3.00;3.00;;;;;28.59;71.71;101144.25;4825655;29;45454;-80
2023/09/13 15:19:06;;;;;;;;;2.75;2.75;;;;;28.66;72.46;101164.81;4824655;29;44813;-79
2023/09/13 15:21:45;;;;;;;;;3.00;2.25;;;;;28.58;68.10;101161.59;4824768;29;44794;-81
2023/09/13 15:24:16;;;;;;;;;2.25;2.25;;;;;28.25;71.47;101135.09;4825094;29;45395;-80
2023/09/13 15:27:05;;;;;;;;;3.25;3.25;;;;;28.60;72.30;101160.59;4826192;29;44843;-80
2023/09/13 15:50:42;;;;;;;;;1.50;1.50;;;;;28.35;69.38;101125.41;5095295;23;45350;-85
2023/09/13 15:53:11;;;;;;;;;2.00;1.50;;;;;28.36;69.17;101165.50;4828497;29;44856;-84
2023/09/13 15:55:37;;;;;;;;;3.25;2.25;;;;;28.07;68.10;101146.03;4855518;29;45546;-83
2023/09/13 15:58:06;;;;;;;;;0.50;0.50;;;;;28.09;68.77;101163.25;4854809;29;45396;-84
2023/09/13 16:00:33;;;;;;;;;2.50;1.50;;;;;28.00;68.56;101162.88;4838767;29;44862;-83
2023/09/13 16:03:00;;;;;;;;;2.25;2.25;;;;;27.71;66.15;101138.78;4834751;29;45727;-83
2023/09/13 16:05:28;;;;;;;;;2.00;1.50;;;;;27.80;68.61;101167.47;4820018;29;45542;-84
2023/09/13 16:07:57;;;;;;;;;3.00;2.25;;;;;27.66;67.11;101161.81;4835917;29;46065;-85
2023/09/13 16:10:24;;;;;;;;;13.00;11.67;;;;;27.48;69.68;101171.81;4836685;29;44867;-84
2023/09/13 16:12:50;;;;;;;;;17.00;15.33;;;;;27.14;70.34;101165.25;4851656;29;45444;-83
2023/09/13 16:15:15;;;;;;;;;18.33;18.33;;;;;26.98;72.21;101164.22;4834738;29;46016;-81
2023/09/13 16:17:48;;;;;;;;;16.00;16.00;;;;;26.93;71.85;101159.88;4835945;29;45494;-83
2023/09/13 16:20:14;;;;;;;;;14.67;14.67;;;;;26.72;73.14;101156.31;4821018;29;45395;-82
2023/09/13 16:22:39;;;;;;;;;18.00;17.33;;;;;26.61;71.42;101155.06;4836732;29;45384;-81
2023/09/13 16:25:08;;;;;;;;;16.00;15.00;;;;;26.70;74.52;101160.06;4829782;29;47084;-82
2023/09/13 16:27:33;;;;;;;;;18.33;17.00;;;;;26.61;74.85;101169.56;4831847;29;45494;-81
2023/09/13 16:30:03;;;;;;;;;16.00;14.67;;;;;26.62;70.64;101173.16;4831671;29;45319;-82
2023/09/13 16:32:29;;;;;;;;;14.00;14.00;;;;;26.53;73.22;101164.41;4830251;29;44766;-82
2023/09/13 16:35:00;;;;;;;;;10.00;10.00;;;;;26.67;74.82;101168.41;4850200;29;45472;-83
2023/09/13 16:37:26;;;;;;;;;12.67;12.33;;;;;26.54;74.24;101178.94;4837271;29;45540;-82
2023/09/13 16:39:54;;;;;;;;;15.33;13.67;;;;;26.45;71.28;101174.81;4835607;29;45510;-82
2023/09/13 16:42:19;;;;;;;;;13.67;13.33;;;;;26.35;69.90;101170.72;4833282;29;44910;-82
2023/09/13 16:44:46;;;;;;;;;13.67;13.00;;;;;26.34;74.33;101171.69;4803314;29;46975;-82
2023/09/13 16:47:14;;;;;;;;;15.00;14.67;;;;;26.20;73.87;101165.94;4850203;29;45501;-83
2023/09/13 16:49:39;;;;;;;;;12.33;12.33;;;;;26.19;71.25;101173.25;4834321;29;45388;-83
2023/09/13 16:52:05;;;;;;;;;17.33;14.00;;;;;26.19;74.66;101172.38;4851325;29;45480;-82
2023/09/13 16:54:33;;;;;;;;;11.00;11.00;;;;;26.29;70.96;101177.31;4851775;29;46161;-82
2023/09/13 16:56:59;;;;;;;;;16.00;13.00;;;;;26.20;72.41;101177.75;4851760;29;45703;-82
2023/09/13 16:59:24;;;;;;;;;11.67;11.67;;;;;26.17;74.02;101177.00;4852174;29;45332;-82
2023/09/13 17:01:49;;;;;;;;;11.33;10.00;;;;;26.11;74.65;101176.31;4818355;29;45900;-82
2023/09/13 17:04:15;;;;;;;;;11.67;11.33;;;;;26.07;73.85;101185.56;4833132;29;45420;-82
2023/09/13 17:06:41;;;;;;;;;11.33;11.33;;;;;25.95;75.04;101175.19;4832020;29;45337;-82
2023/09/13 17:09:49;;;;;;;;;11.33;11.33;;;;;26.09;75.83;101183.66;4849376;29;45485;-82